createdAt,value
2022-07-28T00:02:22.305Z,88468.38
2022-07-28T00:05:07.461Z,88466.19
2022-07-28T00:07:52.276Z,88461.72
2022-07-28T00:10:36.966Z,88461.25
2022-07-28T00:13:21.654Z,88458.34
2022-07-28T00:16:06.356Z,88458.47
2022-07-28T00:18:51.110Z,88456.97
2022-07-28T00:21:35.968Z,88451.53
2022-07-28T00:24:20.734Z,88448.22
2022-07-28T00:27:05.614Z,88450.84
2022-07-28T00:29:51.212Z,88442.69
2022-07-28T00:32:36.739Z,88444.78
2022-07-28T00:35:30.500Z,88441.31
2022-07-28T00:38:16.389Z,88451.63
2022-07-28T00:41:02.010Z,88436.56
2022-07-28T00:43:46.823Z,88431.28
2022-07-28T00:46:31.594Z,88435.06
2022-07-28T00:49:16.865Z,88433.69
2022-07-28T00:52:02.162Z,88430.34
2022-07-28T00:54:47.042Z,88432.88
2022-07-28T00:57:31.927Z,88425.38
2022-07-28T01:00:16.499Z,88427.34
2022-07-28T01:03:01.353Z,88420.97
2022-07-28T01:05:46.538Z,88422.13
2022-07-28T01:08:31.381Z,88427.97
2022-07-28T01:11:16.034Z,88420.34
2022-07-28T01:14:00.993Z,88414.78
2022-07-28T01:16:45.629Z,88413.09
2022-07-28T01:19:30.389Z,88412.41
2022-07-28T01:22:15.167Z,88409.91
2022-07-28T01:24:59.937Z,88409.22
2022-07-28T01:27:44.658Z,88408.38
2022-07-28T01:30:29.534Z,88422.72
2022-07-28T01:33:14.323Z,88417.22
2022-07-28T01:35:59.013Z,88417.88
2022-07-28T01:38:43.794Z,88425.69
2022-07-28T01:41:28.628Z,88419.47
2022-07-28T01:44:14.044Z,88415.75
2022-07-28T01:46:59.403Z,88413.69
2022-07-28T01:49:44.491Z,88420.78
2022-07-28T01:52:29.106Z,88421.22
2022-07-28T01:55:13.780Z,88423.72
2022-07-28T01:57:58.715Z,88425.69
2022-07-28T02:00:43.428Z,88411.09
2022-07-28T02:03:28.197Z,88412.78
2022-07-28T02:06:12.979Z,88418.75
2022-07-28T02:08:57.780Z,88406.81
2022-07-28T02:11:42.468Z,88414.03
2022-07-28T02:14:27.217Z,88414.47
2022-07-28T02:17:12.179Z,88411.16
2022-07-28T02:19:56.823Z,88402.53
2022-07-28T02:22:41.843Z,88406.56
2022-07-28T02:25:26.495Z,88408.13
2022-07-28T02:28:11.182Z,88408.72
2022-07-28T02:30:55.917Z,88408.13
2022-07-28T02:33:59.779Z,88394.78
2022-07-28T02:36:45.540Z,88397.00
2022-07-28T02:39:33.739Z,88404.81
2022-07-28T02:42:18.431Z,88404.66
2022-07-28T02:45:03.296Z,88408.31
2022-07-28T02:47:48.060Z,88408.31
2022-07-28T02:50:33.011Z,88410.38
2022-07-28T02:53:18.047Z,88395.91
2022-07-28T02:56:02.887Z,88395.91
2022-07-28T02:58:47.563Z,88392.47
2022-07-28T03:01:32.393Z,88395.66
2022-07-28T03:04:17.964Z,88399.31
2022-07-28T03:07:03.254Z,88400.13
2022-07-28T03:09:49.037Z,88399.00
2022-07-28T03:12:33.739Z,88396.09
2022-07-28T03:15:18.466Z,88394.84
2022-07-28T03:18:03.120Z,88403.19
2022-07-28T03:20:47.898Z,88407.78
2022-07-28T03:23:32.623Z,88397.22
2022-07-28T03:26:17.483Z,88407.09
2022-07-28T03:29:02.210Z,88405.72
2022-07-28T03:31:47.188Z,88407.69
2022-07-28T03:34:31.918Z,88417.94
2022-07-28T03:37:16.687Z,88413.09
2022-07-28T03:40:01.428Z,88419.09
2022-07-28T03:42:46.303Z,88415.63
2022-07-28T03:45:31.057Z,88425.94
2022-07-28T03:48:15.721Z,88427.16
2022-07-28T03:51:00.744Z,88426.47
2022-07-28T03:53:45.484Z,88427.44
2022-07-28T03:56:30.868Z,88427.16
2022-07-28T03:59:15.427Z,88432.00
2022-07-28T04:02:00.203Z,88430.63
2022-07-28T04:04:45.456Z,88424.66
2022-07-28T04:07:31.757Z,88425.34
2022-07-28T04:10:16.732Z,88427.31
2022-07-28T04:13:01.616Z,88423.28
2022-07-28T04:15:46.433Z,88425.66
2022-07-28T04:18:31.084Z,88419.50
2022-07-28T04:21:15.901Z,88415.88
2022-07-28T04:24:02.155Z,88419.91
2022-07-28T04:26:47.395Z,88418.91
2022-07-28T04:29:32.114Z,88422.25
2022-07-28T04:32:17.875Z,88417.91
2022-07-28T04:35:02.529Z,88425.41
2022-07-28T04:37:47.168Z,88426.78
2022-07-28T04:40:31.977Z,88423.72
2022-07-28T04:43:16.698Z,88422.28
2022-07-28T04:46:01.449Z,88417.00
2022-07-28T04:48:46.782Z,88424.78
2022-07-28T04:51:31.880Z,88426.75
2022-07-28T04:54:16.907Z,88431.22
2022-07-28T04:57:04.646Z,88434.22
2022-07-28T04:59:56.777Z,88428.81
2022-07-28T05:02:41.791Z,88429.88
2022-07-28T05:05:26.574Z,88427.13
2022-07-28T05:08:11.248Z,88426.00
2022-07-28T05:10:56.419Z,88429.75
2022-07-28T05:13:41.451Z,88425.19
2022-07-28T05:16:26.409Z,88424.16
2022-07-28T05:19:11.506Z,88432.19
2022-07-28T05:21:56.238Z,88432.44
2022-07-28T05:24:41.059Z,88430.16
2022-07-28T05:27:25.831Z,88425.50
2022-07-28T05:30:10.677Z,88433.44
2022-07-28T05:32:55.371Z,88426.13
2022-07-28T05:35:40.239Z,88432.59
2022-07-28T05:38:24.909Z,88437.53
2022-07-28T05:41:09.812Z,88441.00
2022-07-28T05:43:54.562Z,88441.03
2022-07-28T05:46:39.239Z,88443.25
2022-07-28T05:49:24.049Z,88442.16
2022-07-28T05:52:08.766Z,88445.66
2022-07-28T05:54:53.392Z,88446.47
2022-07-28T05:57:38.220Z,88446.84
2022-07-28T06:00:23.138Z,88438.31
2022-07-28T06:03:07.791Z,88451.91
2022-07-28T06:06:14.249Z,88443.22
2022-07-28T06:08:58.101Z,88441.91
2022-07-28T06:11:43.031Z,88445.31
2022-07-28T06:14:27.811Z,88438.53
2022-07-28T06:17:12.944Z,88444.59
2022-07-28T06:19:57.707Z,88446.59
2022-07-28T06:22:42.266Z,88443.88
2022-07-28T06:25:27.084Z,88451.34
2022-07-28T06:28:11.721Z,88446.50
2022-07-28T06:30:56.492Z,88431.03
2022-07-28T06:33:41.307Z,88442.53
2022-07-28T06:36:26.066Z,88443.13
2022-07-28T06:39:10.841Z,88436.16
2022-07-28T06:41:55.600Z,88429.91
2022-07-28T06:44:57.927Z,88429.56
2022-07-28T06:47:45.740Z,88436.59
2022-07-28T06:50:32.350Z,88434.56
2022-07-28T06:53:17.113Z,88433.88
2022-07-28T06:56:02.239Z,88436.75
2022-07-28T06:58:47.461Z,88433.47
2022-07-28T07:01:32.219Z,88432.63
2022-07-28T07:04:17.819Z,88435.53
2022-07-28T07:07:03.255Z,88433.47
2022-07-28T07:09:59.632Z,88437.63
2022-07-28T07:12:44.183Z,88435.16
2022-07-28T07:15:29.066Z,88435.34
2022-07-28T07:18:13.785Z,88434.91
2022-07-28T07:20:58.564Z,88439.88
2022-07-28T07:23:43.469Z,88427.13
2022-07-28T07:26:30.150Z,88423.09
2022-07-28T07:29:15.004Z,88418.41
2022-07-28T07:31:59.754Z,88417.97
2022-07-28T07:34:44.516Z,88410.88
2022-07-28T07:37:29.246Z,88409.81
2022-07-28T07:40:14.049Z,88409.94
2022-07-28T07:42:58.907Z,88404.59
2022-07-28T07:45:43.708Z,88398.50
2022-07-28T07:48:28.634Z,88395.72
2022-07-28T07:51:15.524Z,88401.34
2022-07-28T07:54:00.574Z,88404.53
2022-07-28T07:56:45.188Z,88396.28
2022-07-28T07:59:30.531Z,88389.81
2022-07-28T08:02:15.390Z,88389.69
2022-07-28T08:05:00.511Z,88384.63
2022-07-28T08:07:45.705Z,88386.34
2022-07-28T08:10:30.416Z,88388.00
2022-07-28T08:13:15.177Z,88376.78
2022-07-28T08:15:59.824Z,88388.78
2022-07-28T08:18:44.557Z,88386.47
2022-07-28T08:21:29.197Z,88382.41
2022-07-28T08:24:32.967Z,88385.66
2022-07-28T08:27:19.145Z,88386.75
2022-07-28T08:30:03.858Z,88385.22
2022-07-28T08:32:56.754Z,88378.00
2022-07-28T08:35:42.502Z,88381.81
2022-07-28T08:38:27.835Z,88374.78
2022-07-28T08:41:12.471Z,88376.22
2022-07-28T08:43:57.185Z,88377.31
2022-07-28T08:46:41.824Z,88374.53
2022-07-28T08:49:27.055Z,88380.63
2022-07-28T08:52:11.656Z,88377.94
2022-07-28T08:54:56.396Z,88378.34
2022-07-28T08:57:41.007Z,88371.50
2022-07-28T09:00:25.779Z,88373.34
2022-07-28T09:03:10.670Z,88374.31
2022-07-28T09:05:55.806Z,88371.97
2022-07-28T09:08:40.529Z,88372.34
2022-07-28T09:11:28.758Z,88377.69
2022-07-28T09:14:13.865Z,88370.47
2022-07-28T09:16:59.227Z,88379.31
2022-07-28T09:19:43.881Z,88373.31
2022-07-28T09:22:28.526Z,88370.41
2022-07-28T09:25:13.360Z,88366.00
2022-07-28T09:27:58.110Z,88361.09
2022-07-28T09:30:45.668Z,88360.78
2022-07-28T09:33:42.397Z,88358.28
2022-07-28T09:36:28.843Z,88356.56
2022-07-28T09:39:13.665Z,88354.69
2022-07-28T09:41:58.388Z,88347.59
2022-07-28T09:44:55.109Z,88348.47
2022-07-28T09:47:48.237Z,88345.00
2022-07-28T09:50:33.213Z,88345.22
2022-07-28T09:53:18.053Z,88353.75
2022-07-28T09:56:02.754Z,88348.84
2022-07-28T09:58:47.679Z,88344.03
2022-07-28T10:01:36.934Z,88343.59
2022-07-28T10:04:22.164Z,88342.75
2022-07-28T10:07:06.891Z,88338.50
2022-07-28T10:09:51.808Z,88325.00
2022-07-28T10:12:36.385Z,88325.03
2022-07-28T10:15:21.173Z,88328.94
2022-07-28T10:18:16.074Z,88326.25
2022-07-28T10:21:00.835Z,88319.97
2022-07-28T10:23:45.567Z,88324.75
2022-07-28T10:26:30.196Z,88314.38
2022-07-28T10:29:15.133Z,88320.25
2022-07-28T10:31:59.955Z,88318.69
2022-07-28T10:34:45.149Z,88316.22
2022-07-28T10:37:29.962Z,88320.69
2022-07-28T10:40:14.709Z,88312.16
2022-07-28T10:43:00.024Z,88310.91
2022-07-28T10:48:49.496Z,88307.31
2022-07-28T10:51:34.987Z,88306.44
2022-07-28T10:54:24.882Z,88309.47
2022-07-28T10:57:10.008Z,88306.19
2022-07-28T10:59:58.273Z,88303.38
2022-07-28T11:02:43.682Z,88297.28
2022-07-28T11:05:28.836Z,88304.06
2022-07-28T11:08:13.731Z,88308.22
2022-07-28T11:11:09.022Z,88300.16
2022-07-28T11:13:54.610Z,88300.97
2022-07-28T11:16:39.475Z,88295.91
2022-07-28T11:19:40.365Z,88284.25
2022-07-28T11:22:29.495Z,88282.84
2022-07-28T11:25:19.972Z,88288.50
2022-07-28T11:28:06.565Z,88286.91
2022-07-28T11:30:51.458Z,88281.19
2022-07-28T11:33:36.624Z,88266.91
2022-07-28T11:36:31.829Z,88273.06
2022-07-28T11:39:16.630Z,88275.22
2022-07-28T11:42:01.317Z,88275.38
2022-07-28T11:44:46.108Z,88276.03
2022-07-28T11:47:33.402Z,88268.44
2022-07-28T11:50:18.224Z,88274.09
2022-07-28T11:53:02.951Z,88269.06
2022-07-28T11:55:49.275Z,88276.31
2022-07-28T11:58:40.779Z,88282.16
2022-07-28T12:01:25.570Z,88271.28
2022-07-28T12:04:10.497Z,88265.66
2022-07-28T12:06:55.440Z,88263.34
2022-07-28T12:09:42.461Z,88267.50
2022-07-28T12:12:27.916Z,88252.31
2022-07-28T12:15:12.750Z,88251.63
2022-07-28T12:17:57.543Z,88253.53
2022-07-28T12:20:43.502Z,88262.03
2022-07-28T12:23:38.935Z,88248.38
2022-07-28T12:26:31.323Z,88244.19
2022-07-28T12:29:16.541Z,88242.56
2022-07-28T12:32:01.366Z,88249.88
2022-07-28T12:34:46.142Z,88238.75
2022-07-28T12:37:30.865Z,88243.00
2022-07-28T12:40:15.590Z,88244.66
2022-07-28T12:43:00.385Z,88235.13
2022-07-28T12:45:45.083Z,88235.41
2022-07-28T12:48:30.467Z,88234.88
2022-07-28T12:51:15.308Z,88233.31
2022-07-28T12:54:00.027Z,88229.56
2022-07-28T12:56:44.711Z,88226.88
2022-07-28T12:59:29.384Z,88227.88
2022-07-28T13:02:14.120Z,88225.09
2022-07-28T13:04:58.819Z,88221.19
2022-07-28T13:07:43.538Z,88225.88
2022-07-28T13:10:28.741Z,88233.00
2022-07-28T13:13:13.477Z,88213.47
2022-07-28T13:15:58.143Z,88215.19
2022-07-28T13:18:43.012Z,88215.59
2022-07-28T13:21:27.826Z,88216.44
2022-07-28T13:24:12.927Z,88212.00
2022-07-28T13:26:57.778Z,88212.78
2022-07-28T13:29:42.681Z,88218.75
2022-07-28T13:32:27.415Z,88217.34
2022-07-28T13:35:14.889Z,88228.22
2022-07-28T13:38:00.442Z,88216.47
2022-07-28T13:40:45.249Z,88222.22
2022-07-28T13:43:35.926Z,88215.28
2022-07-28T13:46:21.403Z,88218.63
2022-07-28T13:49:06.587Z,88214.06
2022-07-28T13:51:51.794Z,88213.19
2022-07-28T13:54:36.646Z,88214.34
2022-07-28T13:57:21.449Z,88212.88
2022-07-28T14:00:07.920Z,88207.47
2022-07-28T14:02:53.043Z,88218.06
2022-07-28T14:05:38.266Z,88218.25
2022-07-28T14:08:25.469Z,88213.31
2022-07-28T14:11:10.713Z,88214.72
2022-07-28T14:13:55.581Z,88196.69
2022-07-28T14:16:40.446Z,88192.16
2022-07-28T14:19:38.308Z,88198.91
2022-07-28T14:22:23.944Z,88210.31
2022-07-28T14:25:08.725Z,88209.72
2022-07-28T14:27:53.510Z,88218.81
2022-07-28T14:30:38.241Z,88215.81
2022-07-28T14:33:22.979Z,88213.06
2022-07-28T14:36:07.836Z,88235.44
2022-07-28T14:38:54.296Z,88241.41
2022-07-28T14:41:39.374Z,88257.66
2022-07-28T14:44:25.210Z,88274.38
2022-07-28T14:47:10.344Z,88277.78
2022-07-28T14:49:57.828Z,88291.38
2022-07-28T14:52:44.743Z,88301.72
2022-07-28T14:55:30.031Z,88295.72
2022-07-28T14:58:14.805Z,88303.91
2022-07-28T15:00:59.577Z,88308.00
2022-07-28T15:03:44.408Z,88312.97
2022-07-28T15:06:29.192Z,88324.56
2022-07-28T15:09:14.030Z,88331.53
2022-07-28T15:11:58.765Z,88331.97
2022-07-28T15:14:43.492Z,88343.50
2022-07-28T15:17:28.304Z,88344.53
2022-07-28T15:20:13.091Z,88335.69
2022-07-28T15:22:57.812Z,88332.88
2022-07-28T15:25:42.578Z,88340.66
2022-07-28T15:28:27.460Z,88347.75
2022-07-28T15:31:12.205Z,88346.00
2022-07-28T15:33:57.618Z,88350.44
2022-07-28T15:36:42.778Z,88358.53
2022-07-28T15:39:27.389Z,88388.44
2022-07-28T15:42:15.872Z,88389.13
2022-07-28T15:45:01.313Z,88393.94
2022-07-28T15:47:46.445Z,88390.34
2022-07-28T15:50:31.225Z,88400.19
2022-07-28T15:53:15.888Z,88404.31
2022-07-28T15:56:00.703Z,88401.78
2022-07-28T15:58:45.499Z,88394.84
2022-07-28T16:01:30.400Z,88390.81
2022-07-28T16:04:15.941Z,88377.84
2022-07-28T16:07:01.243Z,88375.91
2022-07-28T16:09:46.926Z,88379.59
2022-07-28T16:12:31.815Z,88370.47
2022-07-28T16:15:16.677Z,88367.25
2022-07-28T16:18:01.393Z,88370.34
2022-07-28T16:20:46.193Z,88363.31
2022-07-28T16:23:31.022Z,88370.78
2022-07-28T16:26:15.835Z,88366.16
2022-07-28T16:29:00.521Z,88363.41
2022-07-28T16:31:45.518Z,88366.50
2022-07-28T16:34:30.707Z,88368.13
2022-07-28T16:37:19.352Z,88362.13
2022-07-28T16:40:04.774Z,88361.84
2022-07-28T16:42:49.545Z,88369.59
2022-07-28T16:45:34.258Z,88370.44
2022-07-28T16:48:19.160Z,88364.25
2022-07-28T16:51:03.925Z,88370.94
2022-07-28T16:53:48.735Z,88373.41
2022-07-28T16:56:33.273Z,88371.38
2022-07-28T16:59:18.013Z,88373.50
2022-07-28T17:02:02.916Z,88381.13
2022-07-28T17:04:48.270Z,88373.81
2022-07-28T17:07:33.473Z,88368.69
2022-07-28T17:10:20.359Z,88374.69
2022-07-28T17:13:05.976Z,88376.13
2022-07-28T17:15:50.672Z,88369.09
2022-07-28T17:18:35.335Z,88373.59
2022-07-28T17:21:20.136Z,88374.97
2022-07-28T17:24:04.985Z,88372.41
2022-07-28T17:27:36.698Z,88368.44
2022-07-28T17:29:54.411Z,88378.53
2022-07-28T17:32:39.137Z,88381.69
2022-07-28T17:35:31.535Z,88391.00
2022-07-28T17:38:19.530Z,88392.09
2022-07-28T17:41:04.490Z,88396.91
2022-07-28T17:43:49.554Z,88397.13
2022-07-28T17:46:34.296Z,88408.75
2022-07-28T17:49:20.259Z,88418.13
2022-07-28T17:52:05.436Z,88419.94
2022-07-28T17:54:50.301Z,88421.84
2022-07-28T17:57:37.817Z,88424.78
2022-07-28T18:00:25.347Z,88420.97
2022-07-28T18:03:11.505Z,88427.19
2022-07-28T18:05:56.659Z,88422.38
2022-07-28T18:08:41.233Z,88435.25
2022-07-28T18:11:26.040Z,88442.22
2022-07-28T18:14:10.678Z,88452.44
2022-07-28T18:16:55.350Z,88449.88
2022-07-28T18:19:45.250Z,88458.09
2022-07-28T18:22:30.781Z,88453.28
2022-07-28T18:25:15.563Z,88456.53
2022-07-28T18:28:00.695Z,88459.88
2022-07-28T18:30:45.622Z,88469.00
2022-07-28T18:33:31.098Z,88471.47
2022-07-28T18:36:15.863Z,88477.28
2022-07-28T18:39:00.886Z,88485.06
2022-07-28T18:41:47.188Z,88481.56
2022-07-28T18:44:32.312Z,88482.66
2022-07-28T18:47:17.023Z,88497.25
2022-07-28T18:50:01.712Z,88501.78
2022-07-28T18:52:46.961Z,88502.31
2022-07-28T18:55:31.649Z,88496.63
2022-07-28T18:58:16.584Z,88513.19
2022-07-28T19:01:01.341Z,88516.56
2022-07-28T19:03:47.737Z,88533.59
2022-07-28T19:06:32.380Z,88531.72
2022-07-28T19:09:17.135Z,88526.03
2022-07-28T19:12:01.837Z,88534.22
2022-07-28T19:14:46.577Z,88535.47
2022-07-28T19:17:31.323Z,88538.34
2022-07-28T19:20:16.176Z,88549.09
2022-07-28T19:23:05.150Z,88548.50
2022-07-28T19:25:50.150Z,88549.69
2022-07-28T19:28:34.983Z,88556.00
2022-07-28T19:31:19.707Z,88562.50
2022-07-28T19:34:04.320Z,88561.09
2022-07-28T19:36:49.211Z,88567.91
2022-07-28T19:39:33.749Z,88579.03
2022-07-28T19:42:18.549Z,88582.09
2022-07-28T19:45:03.259Z,88587.44
2022-07-28T19:47:49.733Z,88587.13
2022-07-28T19:50:34.981Z,88593.44
2022-07-28T19:53:19.591Z,88592.25
2022-07-28T19:56:09.986Z,88595.69
2022-07-28T19:58:54.815Z,88601.81
2022-07-28T20:01:46.018Z,88605.06
2022-07-28T20:04:31.954Z,88607.00
2022-07-28T20:07:16.712Z,88614.19
2022-07-28T20:10:01.574Z,88615.59
2022-07-28T20:12:46.553Z,88613.97
2022-07-28T20:15:31.170Z,88625.69
2022-07-28T20:18:15.915Z,88621.94
2022-07-28T20:21:00.749Z,88625.00
2022-07-28T20:23:45.692Z,88625.25
2022-07-28T20:26:30.422Z,88625.06
2022-07-28T20:29:15.221Z,88625.53
2022-07-28T20:31:59.936Z,88626.03
2022-07-28T20:34:44.716Z,88632.13
2022-07-28T20:37:36.974Z,88619.91
2022-07-28T20:40:22.274Z,88627.88
2022-07-28T20:43:07.029Z,88631.25
2022-07-28T20:45:51.842Z,88626.13
2022-07-28T20:48:36.971Z,88628.34
2022-07-28T20:51:22.257Z,88627.94
2022-07-28T20:54:07.101Z,88626.63
2022-07-28T20:56:51.785Z,88624.91
2022-07-28T20:59:36.542Z,88627.34
2022-07-28T21:02:21.207Z,88624.84
2022-07-28T21:05:06.378Z,88624.31
2022-07-28T21:08:05.006Z,88628.25
2022-07-28T21:10:51.720Z,88631.38
2022-07-28T21:13:36.513Z,88627.91
2022-07-28T21:16:21.302Z,88625.97
2022-07-28T21:19:06.409Z,88628.78
2022-07-28T21:21:51.139Z,88628.91
2022-07-28T21:24:35.863Z,88631.78
2022-07-28T21:27:20.659Z,88631.78
2022-07-28T21:30:05.447Z,88637.34
2022-07-28T21:32:50.237Z,88634.69
2022-07-28T21:35:34.994Z,88639.88
2022-07-28T21:38:19.702Z,88639.19
2022-07-28T21:41:04.319Z,88638.38
2022-07-28T21:43:49.059Z,88641.38
2022-07-28T21:46:33.920Z,88638.59
2022-07-28T21:49:18.545Z,88644.84
2022-07-28T21:52:03.314Z,88637.34
2022-07-28T21:54:48.044Z,88639.53
2022-07-28T21:57:32.840Z,88644.63
2022-07-28T22:00:17.753Z,88646.94
2022-07-28T22:03:03.674Z,88645.53
2022-07-28T22:05:48.381Z,88641.72
2022-07-28T22:08:33.060Z,88642.66
2022-07-28T22:11:17.781Z,88637.81
2022-07-28T22:14:02.455Z,88638.63
2022-07-28T22:16:47.377Z,88640.69
2022-07-28T22:19:32.112Z,88642.78
2022-07-28T22:22:16.894Z,88647.75
2022-07-28T22:25:01.630Z,88645.53
2022-07-28T22:27:46.373Z,88652.34
2022-07-28T22:30:31.246Z,88654.19
2022-07-28T22:33:16.030Z,88650.38
2022-07-28T22:36:00.755Z,88651.56
2022-07-28T22:38:45.546Z,88655.09
2022-07-28T22:41:30.410Z,88646.22
2022-07-28T22:44:15.379Z,88648.16
2022-07-28T22:47:00.294Z,88656.13
2022-07-28T22:49:45.073Z,88653.38
2022-07-28T22:52:29.825Z,88646.09
2022-07-28T22:55:14.664Z,88645.53
2022-07-28T22:58:05.558Z,88646.09
2022-07-28T23:00:51.365Z,88644.03
2022-07-28T23:03:36.710Z,88640.13
2022-07-28T23:06:23.451Z,88634.34
2022-07-28T23:09:08.254Z,88636.88
2022-07-28T23:11:55.865Z,88634.47
2022-07-28T23:14:41.241Z,88632.53
2022-07-28T23:17:26.034Z,88630.56
2022-07-28T23:20:10.650Z,88634.94
2022-07-28T23:22:55.571Z,88635.50
2022-07-28T23:25:40.268Z,88630.66
2022-07-28T23:28:25.038Z,88633.31
2022-07-28T23:31:09.639Z,88635.28
2022-07-28T23:33:57.542Z,88631.94
2022-07-28T23:36:42.900Z,88630.91
2022-07-28T23:39:27.586Z,88631.47
2022-07-28T23:42:12.343Z,88634.59
2022-07-28T23:44:57.112Z,88630.19
2022-07-28T23:47:41.873Z,88629.97
2022-07-28T23:50:26.691Z,88624.09
2022-07-28T23:53:11.434Z,88624.31
2022-07-28T23:55:56.205Z,88627.19
2022-07-28T23:58:41.087Z,88631.09
